sensor_id;sensor_type;location;lat;lon;timestamp;pressure;altitude;pressure_sealevel;temperature;humidity
79075;BME280;68476;42.710;23.388;2024-01-15T00:00:41;95123.50;;;-7.77;100.00
79075;BME280;68476;42.710;23.388;2024-01-15T00:03:06;95127.56;;;-7.73;100.00
79075;BME280;68476;42.710;23.388;2024-01-15T00:05:32;95128.28;;;-7.71;100.00
79075;BME280;68476;42.710;23.388;2024-01-15T00:07:57;95111.47;;;-7.81;100.00
79075;BME280;68476;42.710;23.388;2024-01-15T00:10:23;95117.94;;;-7.74;100.00
79075;BME280;68476;42.710;23.388;2024-01-15T00:12:49;95110.72;;;-7.72;100.00
79075;BME280;68476;42.710;23.388;2024-01-15T00:15:15;95112.81;;;-7.54;100.00
79075;BME280;68476;42.710;23.388;2024-01-15T00:17:41;95115.50;;;-7.66;100.00
79075;BME280;68476;42.710;23.388;2024-01-15T00:20:06;95109.03;;;-7.73;100.00
79075;BME280;68476;42.710;23.388;2024-01-15T00:22:32;95109.94;;;-7.63;100.00
79075;BME280;68476;42.710;23.388;2024-01-15T00:24:58;95113.44;;;-7.41;100.00
79075;BME280;68476;42.710;23.388;2024-01-15T00:27:23;95104.72;;;-7.32;100.00
79075;BME280;68476;42.710;23.388;2024-01-15T00:29:49;95107.38;;;-7.32;100.00
79075;BME280;68476;42.710;23.388;2024-01-15T00:32:16;95119.88;;;-7.55;100.00
79075;BME280;68476;42.710;23.388;2024-01-15T00:34:42;95108.31;;;-7.54;100.00
79075;BME280;68476;42.710;23.388;2024-01-15T00:37:07;95124.03;;;-7.62;100.00
79075;BME280;68476;42.710;23.388;2024-01-15T00:39:33;95106.72;;;-8.20;100.00
79075;BME280;68476;42.710;23.388;2024-01-15T00:41:58;95118.13;;;-8.20;100.00
79075;BME280;68476;42.710;23.388;2024-01-15T00:44:24;95121.63;;;-7.98;100.00
79075;BME280;68476;42.710;23.388;2024-01-15T00:46:50;95127.03;;;-7.88;100.00
79075;BME280;68476;42.710;23.388;2024-01-15T00:49:15;95121.88;;;-7.90;100.00
79075;BME280;68476;42.710;23.388;2024-01-15T00:51:41;95114.47;;;-8.07;100.00
79075;BME280;68476;42.710;23.388;2024-01-15T00:54:07;95117.84;;;-8.05;100.00
79075;BME280;68476;42.710;23.388;2024-01-15T00:56:33;95117.63;;;-8.13;100.00
79075;BME280;68476;42.710;23.388;2024-01-15T00:58:59;95120.38;;;-8.15;100.00
79075;BME280;68476;42.710;23.388;2024-01-15T01:01:24;95112.06;;;-8.10;100.00
79075;BME280;68476;42.710;23.388;2024-01-15T01:03:50;95107.06;;;-8.13;100.00
79075;BME280;68476;42.710;23.388;2024-01-15T01:06:15;95111.09;;;-8.09;100.00
79075;BME280;68476;42.710;23.388;2024-01-15T01:08:41;95114.84;;;-8.12;100.00
79075;BME280;68476;42.710;23.388;2024-01-15T01:11:06;95120.38;;;-8.15;100.00
79075;BME280;68476;42.710;23.388;2024-01-15T01:13:32;95111.81;;;-8.07;100.00
79075;BME280;68476;42.710;23.388;2024-01-15T01:15:58;95107.06;;;-8.13;100.00
79075;BME280;68476;42.710;23.388;2024-01-15T01:18:23;95109.22;;;-8.18;100.00
79075;BME280;68476;42.710;23.388;2024-01-15T01:20:49;95102.16;;;-8.18;100.00
79075;BME280;68476;42.710;23.388;2024-01-15T01:23:14;95108.06;;;-8.26;100.00
79075;BME280;68476;42.710;23.388;2024-01-15T01:25:40;95102.03;;;-8.28;100.00
79075;BME280;68476;42.710;23.388;2024-01-15T01:28:05;95100.84;;;-8.24;100.00
79075;BME280;68476;42.710;23.388;2024-01-15T01:30:31;95103.75;;;-8.38;100.00
79075;BME280;68476;42.710;23.388;2024-01-15T01:32:56;95096.78;;;-8.39;100.00
79075;BME280;68476;42.710;23.388;2024-01-15T01:35:22;95098.34;;;-8.37;100.00
79075;BME280;68476;42.710;23.388;2024-01-15T01:37:48;95090.75;;;-8.30;100.00
79075;BME280;68476;42.710;23.388;2024-01-15T01:40:13;95095.66;;;-8.25;100.00
79075;BME280;68476;42.710;23.388;2024-01-15T01:42:39;95090.63;;;-8.28;100.00
79075;BME280;68476;42.710;23.388;2024-01-15T01:45:05;95083.97;;;-8.23;100.00
79075;BME280;68476;42.710;23.388;2024-01-15T01:47:31;95086.56;;;-8.32;100.00
79075;BME280;68476;42.710;23.388;2024-01-15T01:49:57;95084.78;;;-8.43;100.00
79075;BME280;68476;42.710;23.388;2024-01-15T01:52:23;95091.81;;;-8.54;100.00
79075;BME280;68476;42.710;23.388;2024-01-15T01:54:49;95089.09;;;-8.42;100.00
79075;BME280;68476;42.710;23.388;2024-01-15T01:57:16;95082.19;;;-8.55;100.00
79075;BME280;68476;42.710;23.388;2024-01-15T01:59:43;95088.94;;;-8.50;100.00
79075;BME280;68476;42.710;23.388;2024-01-15T02:02:08;95083.34;;;-8.36;100.00
79075;BME280;68476;42.710;23.388;2024-01-15T02:04:34;95077.09;;;-8.46;100.00
79075;BME280;68476;42.710;23.388;2024-01-15T02:07:02;95071.97;;;-8.48;100.00
79075;BME280;68476;42.710;23.388;2024-01-15T02:09:28;95072.03;;;-8.38;100.00
79075;BME280;68476;42.710;23.388;2024-01-15T02:11:53;95073.72;;;-8.37;100.00
79075;BME280;68476;42.710;23.388;2024-01-15T02:14:19;95064.31;;;-8.30;100.00
79075;BME280;68476;42.710;23.388;2024-01-15T02:16:44;95064.22;;;-8.40;100.00
79075;BME280;68476;42.710;23.388;2024-01-15T02:19:17;95058.91;;;-8.49;100.00
79075;BME280;68476;42.710;23.388;2024-01-15T02:21:42;95048.22;;;-8.27;100.00
79075;BME280;68476;42.710;23.388;2024-01-15T02:24:08;95039.97;;;-8.12;100.00
79075;BME280;68476;42.710;23.388;2024-01-15T02:26:34;95023.78;;;-8.19;100.00
79075;BME280;68476;42.710;23.388;2024-01-15T02:29:03;95034.03;;;-8.26;100.00
79075;BME280;68476;42.710;23.388;2024-01-15T02:31:30;95027.69;;;-8.34;100.00
79075;BME280;68476;42.710;23.388;2024-01-15T02:33:55;95005.06;;;-8.27;100.00
79075;BME280;68476;42.710;23.388;2024-01-15T02:36:20;95010.09;;;-8.24;100.00
79075;BME280;68476;42.710;23.388;2024-01-15T02:38:46;95014.66;;;-8.26;100.00
79075;BME280;68476;42.710;23.388;2024-01-15T02:41:11;95000.31;;;-8.12;100.00
79075;BME280;68476;42.710;23.388;2024-01-15T02:43:40;95006.28;;;-8.10;100.00
79075;BME280;68476;42.710;23.388;2024-01-15T02:46:05;95009.47;;;-8.16;100.00
79075;BME280;68476;42.710;23.388;2024-01-15T02:48:31;95017.41;;;-8.16;100.00
79075;BME280;68476;42.710;23.388;2024-01-15T02:50:56;95017.09;;;-8.02;100.00
79075;BME280;68476;42.710;23.388;2024-01-15T02:53:22;95000.25;;;-8.01;100.00
79075;BME280;68476;42.710;23.388;2024-01-15T02:55:47;95010.56;;;-7.98;100.00
79075;BME280;68476;42.710;23.388;2024-01-15T02:58:14;95015.16;;;-8.00;100.00
79075;BME280;68476;42.710;23.388;2024-01-15T03:00:39;95004.25;;;-8.07;100.00
79075;BME280;68476;42.710;23.388;2024-01-15T03:03:05;95006.28;;;-8.10;100.00
79075;BME280;68476;42.710;23.388;2024-01-15T03:05:30;94996.66;;;-8.00;100.00
79075;BME280;68476;42.710;23.388;2024-01-15T03:07:56;95007.22;;;-8.00;100.00
79075;BME280;68476;42.710;23.388;2024-01-15T03:10:21;95010.84;;;-8.01;100.00
79075;BME280;68476;42.710;23.388;2024-01-15T03:12:47;95012.50;;;-8.00;100.00
79075;BME280;68476;42.710;23.388;2024-01-15T03:15:12;94998.81;;;-8.05;100.00
79075;BME280;68476;42.710;23.388;2024-01-15T03:17:38;94998.28;;;-7.99;100.00
79075;BME280;68476;42.710;23.388;2024-01-15T03:20:04;94995.47;;;-8.07;100.00
79075;BME280;68476;42.710;23.388;2024-01-15T03:22:29;94999.94;;;-8.08;100.00
79075;BME280;68476;42.710;23.388;2024-01-15T03:24:55;94992.72;;;-8.06;100.00
79075;BME280;68476;42.710;23.388;2024-01-15T03:27:20;94992.72;;;-8.06;100.00
79075;BME280;68476;42.710;23.388;2024-01-15T03:29:46;94994.09;;;-8.01;100.00
79075;BME280;68476;42.710;23.388;2024-01-15T03:32:11;94984.72;;;-7.94;100.00
79075;BME280;68476;42.710;23.388;2024-01-15T03:34:37;94974.00;;;-7.93;100.00
79075;BME280;68476;42.710;23.388;2024-01-15T03:37:02;94982.88;;;-7.94;100.00
79075;BME280;68476;42.710;23.388;2024-01-15T03:39:28;94974.63;;;-7.79;100.00
79075;BME280;68476;42.710;23.388;2024-01-15T03:41:55;94981.91;;;-7.71;100.00
79075;BME280;68476;42.710;23.388;2024-01-15T03:44:20;94979.25;;;-7.71;100.00
79075;BME280;68476;42.710;23.388;2024-01-15T03:46:46;94975.25;;;-7.66;100.00
79075;BME280;68476;42.710;23.388;2024-01-15T03:49:11;94973.19;;;-7.62;100.00
79075;BME280;68476;42.710;23.388;2024-01-15T03:51:37;94970.19;;;-7.48;100.00
79075;BME280;68476;42.710;23.388;2024-01-15T03:54:02;94975.94;;;-7.33;100.00
79075;BME280;68476;42.710;23.388;2024-01-15T03:56:28;94976.56;;;-7.19;100.00
79075;BME280;68476;42.710;23.388;2024-01-15T03:58:54;94978.53;;;-7.12;100.00
79075;BME280;68476;42.710;23.388;2024-01-15T04:01:19;94966.41;;;-7.04;100.00
79075;BME280;68476;42.710;23.388;2024-01-15T04:03:45;94971.84;;;-7.06;100.00
79075;BME280;68476;42.710;23.388;2024-01-15T04:06:10;94957.41;;;-7.33;100.00
79075;BME280;68476;42.710;23.388;2024-01-15T04:08:36;94968.41;;;-7.37;100.00
79075;BME280;68476;42.710;23.388;2024-01-15T04:11:01;94959.44;;;-7.46;100.00
79075;BME280;68476;42.710;23.388;2024-01-15T04:13:27;94960.41;;;-7.47;100.00
79075;BME280;68476;42.710;23.388;2024-01-15T04:15:53;94947.63;;;-7.42;100.00
79075;BME280;68476;42.710;23.388;2024-01-15T04:18:18;94944.53;;;-7.47;100.00
79075;BME280;68476;42.710;23.388;2024-01-15T04:20:44;94961.94;;;-7.54;100.00
79075;BME280;68476;42.710;23.388;2024-01-15T04:23:10;94959.19;;;-7.74;100.00
79075;BME280;68476;42.710;23.388;2024-01-15T04:25:35;94957.16;;;-7.92;100.00
79075;BME280;68476;42.710;23.388;2024-01-15T04:28:01;94958.38;;;-7.96;100.00
79075;BME280;68476;42.710;23.388;2024-01-15T04:30:26;94954.03;;;-7.97;100.00
79075;BME280;68476;42.710;23.388;2024-01-15T04:32:52;94952.19;;;-7.85;100.00
79075;BME280;68476;42.710;23.388;2024-01-15T04:35:17;94958.84;;;-7.91;100.00
79075;BME280;68476;42.710;23.388;2024-01-15T04:37:43;94944.97;;;-7.83;100.00
79075;BME280;68476;42.710;23.388;2024-01-15T04:40:09;94956.81;;;-7.77;100.00
79075;BME280;68476;42.710;23.388;2024-01-15T04:42:34;94960.28;;;-7.77;100.00
79075;BME280;68476;42.710;23.388;2024-01-15T04:45:00;94951.13;;;-7.72;100.00
79075;BME280;68476;42.710;23.388;2024-01-15T04:47:25;94957.31;;;-7.62;100.00
79075;BME280;68476;42.710;23.388;2024-01-15T04:49:51;94943.84;;;-7.49;100.00
79075;BME280;68476;42.710;23.388;2024-01-15T04:52:16;94950.63;;;-7.56;100.00
79075;BME280;68476;42.710;23.388;2024-01-15T04:54:42;94942.13;;;-7.60;100.00
79075;BME280;68476;42.710;23.388;2024-01-15T04:57:07;94945.59;;;-7.60;100.00
79075;BME280;68476;42.710;23.388;2024-01-15T04:59:33;94944.41;;;-7.46;100.00
79075;BME280;68476;42.710;23.388;2024-01-15T05:01:58;94936.50;;;-7.36;100.00
79075;BME280;68476;42.710;23.388;2024-01-15T05:04:24;94929.09;;;-7.42;100.00
79075;BME280;68476;42.710;23.388;2024-01-15T05:06:50;94937.34;;;-7.35;100.00
79075;BME280;68476;42.710;23.388;2024-01-15T05:09:15;94952.44;;;-7.57;100.00
79075;BME280;68476;42.710;23.388;2024-01-15T05:11:41;94949.09;;;-7.59;100.00
79075;BME280;68476;42.710;23.388;2024-01-15T05:14:06;94946.31;;;-7.57;100.00
79075;BME280;68476;42.710;23.388;2024-01-15T05:16:32;94932.53;;;-7.51;100.00
79075;BME280;68476;42.710;23.388;2024-01-15T05:18:57;94928.66;;;-7.47;100.00
79075;BME280;68476;42.710;23.388;2024-01-15T05:21:23;94934.00;;;-7.68;100.00
79075;BME280;68476;42.710;23.388;2024-01-15T05:23:48;94924.06;;;-8.07;100.00
79075;BME280;68476;42.710;23.388;2024-01-15T05:26:14;94919.63;;;-8.28;100.00
79075;BME280;68476;42.710;23.388;2024-01-15T05:28:41;94922.94;;;-8.14;100.00
79075;BME280;68476;42.710;23.388;2024-01-15T05:31:08;94929.03;;;-7.93;100.00
79075;BME280;68476;42.710;23.388;2024-01-15T05:33:33;94923.41;;;-7.68;100.00
79075;BME280;68476;42.710;23.388;2024-01-15T05:35:59;94920.56;;;-7.46;100.00
79075;BME280;68476;42.710;23.388;2024-01-15T05:38:24;94907.63;;;-7.39;100.00
79075;BME280;68476;42.710;23.388;2024-01-15T05:40:50;94914.34;;;-7.35;100.00
79075;BME280;68476;42.710;23.388;2024-01-15T05:43:15;94899.03;;;-7.31;100.00
79075;BME280;68476;42.710;23.388;2024-01-15T05:45:43;94895.25;;;-7.29;100.00
79075;BME280;68476;42.710;23.388;2024-01-15T05:48:08;94905.19;;;-7.21;100.00
79075;BME280;68476;42.710;23.388;2024-01-15T05:50:34;94899.59;;;-7.18;100.00
79075;BME280;68476;42.710;23.388;2024-01-15T05:53:00;94907.00;;;-7.21;100.00
79075;BME280;68476;42.710;23.388;2024-01-15T05:55:25;94894.88;;;-7.24;100.00
79075;BME280;68476;42.710;23.388;2024-01-15T05:57:51;94885.81;;;-7.21;100.00
79075;BME280;68476;42.710;23.388;2024-01-15T06:00:17;94894.56;;;-7.21;100.00
79075;BME280;68476;42.710;23.388;2024-01-15T06:02:42;94889.56;;;-7.24;100.00
79075;BME280;68476;42.710;23.388;2024-01-15T06:05:08;94893.06;;;-7.23;100.00
79075;BME280;68476;42.710;23.388;2024-01-15T06:07:34;94910.06;;;-7.16;100.00
79075;BME280;68476;42.710;23.388;2024-01-15T06:10:01;94920.69;;;-7.06;100.00
79075;BME280;68476;42.710;23.388;2024-01-15T06:12:27;94930.59;;;-6.99;100.00
79075;BME280;68476;42.710;23.388;2024-01-15T06:14:53;94921.56;;;-6.86;100.00
79075;BME280;68476;42.710;23.388;2024-01-15T06:17:19;94915.41;;;-6.77;100.00
79075;BME280;68476;42.710;23.388;2024-01-15T06:19:44;94886.69;;;-6.62;100.00
79075;BME280;68476;42.710;23.388;2024-01-15T06:22:09;94904.69;;;-6.56;100.00
79075;BME280;68476;42.710;23.388;2024-01-15T06:24:35;94893.78;;;-6.43;100.00
79075;BME280;68476;42.710;23.388;2024-01-15T06:27:00;94903.09;;;-6.19;100.00
79075;BME280;68476;42.710;23.388;2024-01-15T06:29:26;94890.00;;;-6.21;100.00
79075;BME280;68476;42.710;23.388;2024-01-15T06:31:55;94882.41;;;-6.06;100.00
79075;BME280;68476;42.710;23.388;2024-01-15T06:34:20;94878.66;;;-5.75;100.00
79075;BME280;68476;42.710;23.388;2024-01-15T06:36:46;94886.78;;;-5.49;100.00
79075;BME280;68476;42.710;23.388;2024-01-15T06:39:11;94893.88;;;-5.39;100.00
79075;BME280;68476;42.710;23.388;2024-01-15T06:41:37;94898.13;;;-5.19;100.00
79075;BME280;68476;42.710;23.388;2024-01-15T06:44:11;94896.16;;;-4.99;100.00
79075;BME280;68476;42.710;23.388;2024-01-15T06:46:36;94882.44;;;-4.94;100.00
79075;BME280;68476;42.710;23.388;2024-01-15T06:49:02;94894.34;;;-5.26;100.00
79075;BME280;68476;42.710;23.388;2024-01-15T06:51:29;94892.41;;;-5.24;100.00
79075;BME280;68476;42.710;23.388;2024-01-15T06:53:54;94892.16;;;-5.31;100.00
79075;BME280;68476;42.710;23.388;2024-01-15T06:56:20;94902.28;;;-5.16;100.00
79075;BME280;68476;42.710;23.388;2024-01-15T06:58:46;94895.94;;;-5.33;100.00
79075;BME280;68476;42.710;23.388;2024-01-15T07:01:11;94909.59;;;-5.00;100.00
79075;BME280;68476;42.710;23.388;2024-01-15T07:03:37;94913.66;;;-4.78;100.00
79075;BME280;68476;42.710;23.388;2024-01-15T07:06:03;94907.16;;;-4.66;100.00
79075;BME280;68476;42.710;23.388;2024-01-15T07:08:29;94909.41;;;-4.53;100.00
79075;BME280;68476;42.710;23.388;2024-01-15T07:10:55;94904.16;;;-4.44;100.00
79075;BME280;68476;42.710;23.388;2024-01-15T07:13:20;94893.22;;;-4.41;100.00
79075;BME280;68476;42.710;23.388;2024-01-15T07:15:46;94897.16;;;-4.45;100.00
79075;BME280;68476;42.710;23.388;2024-01-15T07:18:11;94889.13;;;-4.54;100.00
79075;BME280;68476;42.710;23.388;2024-01-15T07:20:37;94904.78;;;-4.51;100.00
79075;BME280;68476;42.710;23.388;2024-01-15T07:23:02;94908.03;;;-4.57;100.00
79075;BME280;68476;42.710;23.388;2024-01-15T07:25:29;94907.38;;;-4.59;100.00
79075;BME280;68476;42.710;23.388;2024-01-15T07:27:54;94912.81;;;-4.60;100.00
79075;BME280;68476;42.710;23.388;2024-01-15T07:30:20;94896.50;;;-4.29;100.00
79075;BME280;68476;42.710;23.388;2024-01-15T07:32:47;94896.34;;;-4.46;100.00
79075;BME280;68476;42.710;23.388;2024-01-15T07:35:14;94899.22;;;-4.57;100.00
79075;BME280;68476;42.710;23.388;2024-01-15T07:37:39;94894.66;;;-4.83;100.00
79075;BME280;68476;42.710;23.388;2024-01-15T07:40:05;94895.81;;;-4.50;100.00
79075;BME280;68476;42.710;23.388;2024-01-15T07:42:34;94885.25;;;-4.41;100.00
79075;BME280;68476;42.710;23.388;2024-01-15T07:45:00;94883.25;;;-4.39;100.00
79075;BME280;68476;42.710;23.388;2024-01-15T07:47:26;94892.63;;;-4.35;100.00
79075;BME280;68476;42.710;23.388;2024-01-15T07:49:52;94912.44;;;-3.85;100.00
79075;BME280;68476;42.710;23.388;2024-01-15T07:52:17;94900.69;;;-3.74;100.00
79075;BME280;68476;42.710;23.388;2024-01-15T07:54:43;94898.94;;;-3.92;100.00
79075;BME280;68476;42.710;23.388;2024-01-15T07:57:10;94901.22;;;-3.36;100.00
79075;BME280;68476;42.710;23.388;2024-01-15T07:59:35;94904.25;;;-3.65;100.00
79075;BME280;68476;42.710;23.388;2024-01-15T08:02:01;94904.66;;;-4.23;100.00
79075;BME280;68476;42.710;23.388;2024-01-15T08:04:26;94898.88;;;-4.00;100.00
79075;BME280;68476;42.710;23.388;2024-01-15T08:06:52;94867.16;;;-4.11;100.00
79075;BME280;68476;42.710;23.388;2024-01-15T08:09:18;94859.34;;;-3.87;100.00
79075;BME280;68476;42.710;23.388;2024-01-15T08:11:43;94861.63;;;-3.65;100.00
79075;BME280;68476;42.710;23.388;2024-01-15T08:14:09;94865.97;;;-3.30;100.00
79075;BME280;68476;42.710;23.388;2024-01-15T08:16:36;94877.94;;;-3.26;100.00
79075;BME280;68476;42.710;23.388;2024-01-15T08:19:05;94895.16;;;-3.12;100.00
79075;BME280;68476;42.710;23.388;2024-01-15T08:21:31;94878.53;;;-3.05;100.00
79075;BME280;68476;42.710;23.388;2024-01-15T08:24:01;94874.38;;;-3.08;100.00
79075;BME280;68476;42.710;23.388;2024-01-15T08:26:30;94882.06;;;-2.88;100.00
79075;BME280;68476;42.710;23.388;2024-01-15T08:28:55;94884.31;;;-2.51;100.00
79075;BME280;68476;42.710;23.388;2024-01-15T08:31:21;94891.69;;;-1.95;100.00
79075;BME280;68476;42.710;23.388;2024-01-15T08:33:47;94887.78;;;-1.59;100.00
79075;BME280;68476;42.710;23.388;2024-01-15T08:36:12;94862.03;;;-1.44;100.00
79075;BME280;68476;42.710;23.388;2024-01-15T08:38:38;94862.22;;;-1.14;100.00
79075;BME280;68476;42.710;23.388;2024-01-15T08:41:04;94861.66;;;-1.32;100.00
79075;BME280;68476;42.710;23.388;2024-01-15T08:43:29;94842.47;;;-1.04;100.00
79075;BME280;68476;42.710;23.388;2024-01-15T08:45:58;94853.28;;;-0.66;100.00
79075;BME280;68476;42.710;23.388;2024-01-15T08:48:24;94848.56;;;-0.87;100.00
79075;BME280;68476;42.710;23.388;2024-01-15T08:50:52;94843.75;;;-1.23;100.00
79075;BME280;68476;42.710;23.388;2024-01-15T08:53:18;94837.13;;;-1.44;100.00
79075;BME280;68476;42.710;23.388;2024-01-15T08:55:43;94831.19;;;-1.63;100.00
79075;BME280;68476;42.710;23.388;2024-01-15T08:58:09;94832.09;;;-1.39;100.00
79075;BME280;68476;42.710;23.388;2024-01-15T09:00:35;94833.47;;;-0.80;100.00
79075;BME280;68476;42.710;23.388;2024-01-15T09:03:01;94813.06;;;-0.58;100.00
79075;BME280;68476;42.710;23.388;2024-01-15T09:05:27;94811.78;;;-1.57;100.00
79075;BME280;68476;42.710;23.388;2024-01-15T09:07:52;94794.94;;;-1.26;100.00
79075;BME280;68476;42.710;23.388;2024-01-15T09:10:18;94802.59;;;-0.91;100.00
79075;BME280;68476;42.710;23.388;2024-01-15T09:12:44;94811.97;;;-0.40;100.00
79075;BME280;68476;42.710;23.388;2024-01-15T09:15:10;94805.59;;;-0.01;100.00
79075;BME280;68476;42.710;23.388;2024-01-15T09:17:35;94775.19;;;-0.08;100.00
79075;BME280;68476;42.710;23.388;2024-01-15T09:20:01;94766.22;;;-0.16;100.00
79075;BME280;68476;42.710;23.388;2024-01-15T09:22:26;94758.56;;;2.02;100.00
79075;BME280;68476;42.710;23.388;2024-01-15T09:24:52;94757.75;;;2.78;100.00
79075;BME280;68476;42.710;23.388;2024-01-15T09:27:18;94738.06;;;4.99;100.00
79075;BME280;68476;42.710;23.388;2024-01-15T09:29:44;94736.63;;;4.31;63.16
79075;BME280;68476;42.710;23.388;2024-01-15T09:32:11;94743.00;;;3.22;67.55
79075;BME280;68476;42.710;23.388;2024-01-15T09:34:38;94755.69;;;1.53;73.24
79075;BME280;68476;42.710;23.388;2024-01-15T09:37:04;94759.16;;;0.88;74.69
79075;BME280;68476;42.710;23.388;2024-01-15T09:39:29;94732.81;;;1.85;70.61
79075;BME280;68476;42.710;23.388;2024-01-15T09:41:56;94720.25;;;2.21;69.05
79075;BME280;68476;42.710;23.388;2024-01-15T09:44:22;94711.13;;;1.15;72.45
79075;BME280;68476;42.710;23.388;2024-01-15T09:46:47;94704.19;;;5.99;56.84
79075;BME280;68476;42.710;23.388;2024-01-15T09:49:16;94707.56;;;6.39;53.66
79075;BME280;68476;42.710;23.388;2024-01-15T09:51:42;94696.25;;;4.63;58.65
79075;BME280;68476;42.710;23.388;2024-01-15T09:54:08;94702.50;;;2.89;64.85
79075;BME280;68476;42.710;23.388;2024-01-15T09:56:34;94693.41;;;1.93;67.90
79075;BME280;68476;42.710;23.388;2024-01-15T09:59:00;94678.19;;;1.21;72.34
79075;BME280;68476;42.710;23.388;2024-01-15T10:01:26;94688.22;;;1.13;74.51
79075;BME280;68476;42.710;23.388;2024-01-15T10:03:52;94678.00;;;1.01;76.71
79075;BME280;68476;42.710;23.388;2024-01-15T10:06:18;94681.28;;;1.47;78.21
79075;BME280;68476;42.710;23.388;2024-01-15T10:08:50;94693.06;;;2.09;72.16
79075;BME280;68476;42.710;23.388;2024-01-15T10:11:16;94705.06;;;1.06;78.75
79075;BME280;68476;42.710;23.388;2024-01-15T10:13:43;94681.69;;;1.22;78.31
79075;BME280;68476;42.710;23.388;2024-01-15T10:16:09;94662.56;;;0.88;79.60
79075;BME280;68476;42.710;23.388;2024-01-15T10:18:35;94654.59;;;0.73;79.90
79075;BME280;68476;42.710;23.388;2024-01-15T10:21:03;94652.69;;;0.89;77.99
79075;BME280;68476;42.710;23.388;2024-01-15T10:23:29;94652.69;;;0.89;76.84
79075;BME280;68476;42.710;23.388;2024-01-15T10:25:56;94651.06;;;0.51;76.54
79075;BME280;68476;42.710;23.388;2024-01-15T10:28:22;94641.44;;;0.42;76.41
79075;BME280;68476;42.710;23.388;2024-01-15T10:30:52;94638.44;;;0.88;75.04
79075;BME280;68476;42.710;23.388;2024-01-15T10:33:21;94641.41;;;1.22;73.64
79075;BME280;68476;42.710;23.388;2024-01-15T10:35:47;94639.91;;;0.91;74.22
79075;BME280;68476;42.710;23.388;2024-01-15T10:38:12;94632.50;;;0.93;73.97
79075;BME280;68476;42.710;23.388;2024-01-15T10:40:38;94639.53;;;0.94;75.84
79075;BME280;68476;42.710;23.388;2024-01-15T10:43:03;94614.63;;;1.29;74.63
79075;BME280;68476;42.710;23.388;2024-01-15T10:45:29;94603.25;;;1.55;73.97
79075;BME280;68476;42.710;23.388;2024-01-15T10:47:55;94622.41;;;0.95;77.19
79075;BME280;68476;42.710;23.388;2024-01-15T10:50:24;94604.34;;;1.32;76.10
79075;BME280;68476;42.710;23.388;2024-01-15T10:52:50;94605.28;;;1.53;75.52
79075;BME280;68476;42.710;23.388;2024-01-15T10:55:17;94613.22;;;1.61;74.79
79075;BME280;68476;42.710;23.388;2024-01-15T10:57:44;94595.81;;;1.57;72.99
79075;BME280;68476;42.710;23.388;2024-01-15T11:00:10;94590.19;;;1.80;70.04
79075;BME280;68476;42.710;23.388;2024-01-15T11:02:40;94580.63;;;2.20;68.19
79075;BME280;68476;42.710;23.388;2024-01-15T11:05:06;94578.88;;;2.60;66.78
79075;BME280;68476;42.710;23.388;2024-01-15T11:07:31;94584.13;;;3.09;64.47
79075;BME280;68476;42.710;23.388;2024-01-15T11:09:57;94583.69;;;4.31;60.16
79075;BME280;68476;42.710;23.388;2024-01-15T11:12:24;94559.78;;;3.83;63.41
79075;BME280;68476;42.710;23.388;2024-01-15T11:14:50;94571.06;;;3.19;62.89
79075;BME280;68476;42.710;23.388;2024-01-15T11:17:17;94573.44;;;2.27;66.38
79075;BME280;68476;42.710;23.388;2024-01-15T11:19:48;94563.63;;;2.88;66.15
79075;BME280;68476;42.710;23.388;2024-01-15T11:25:18;94559.25;;;4.20;60.98
79075;BME280;68476;42.710;23.388;2024-01-15T11:27:47;94548.66;;;3.59;62.59
79075;BME280;68476;42.710;23.388;2024-01-15T11:30:17;94547.78;;;3.85;62.77
79075;BME280;68476;42.710;23.388;2024-01-15T11:32:42;94544.13;;;3.46;63.15
79075;BME280;68476;42.710;23.388;2024-01-15T11:35:09;94536.41;;;3.77;62.48
79075;BME280;68476;42.710;23.388;2024-01-15T11:42:49;94533.03;;;4.34;61.10
79075;BME280;68476;42.710;23.388;2024-01-15T11:45:21;94530.88;;;4.10;61.44
79075;BME280;68476;42.710;23.388;2024-01-15T11:48:09;94538.13;;;3.44;63.90
79075;BME280;68476;42.710;23.388;2024-01-15T11:50:40;94524.28;;;3.14;64.16
79075;BME280;68476;42.710;23.388;2024-01-15T11:53:21;94527.59;;;3.22;64.45
79075;BME280;68476;42.710;23.388;2024-01-15T11:55:47;94527.94;;;2.32;67.18
79075;BME280;68476;42.710;23.388;2024-01-15T11:58:14;94526.66;;;2.14;68.15
79075;BME280;68476;42.710;23.388;2024-01-15T12:00:42;94515.44;;;1.97;69.55
79075;BME280;68476;42.710;23.388;2024-01-15T12:03:08;94519.66;;;2.20;68.33
79075;BME280;68476;42.710;23.388;2024-01-15T12:05:37;94504.78;;;2.38;67.98
79075;BME280;68476;42.710;23.388;2024-01-15T12:08:02;94501.47;;;2.29;67.63
79075;BME280;68476;42.710;23.388;2024-01-15T12:10:28;94503.78;;;2.52;67.86
79075;BME280;68476;42.710;23.388;2024-01-15T12:13:11;94512.91;;;2.65;67.51
79075;BME280;68476;42.710;23.388;2024-01-15T12:15:37;94516.22;;;2.80;66.52
79075;BME280;68476;42.710;23.388;2024-01-15T12:18:07;94495.91;;;2.71;66.57
79075;BME280;68476;42.710;23.388;2024-01-15T12:20:33;94500.19;;;2.11;68.03
79075;BME280;68476;42.710;23.388;2024-01-15T12:22:59;94499.63;;;2.36;68.05
79075;BME280;68476;42.710;23.388;2024-01-15T12:25:26;94487.66;;;2.79;66.98
79075;BME280;68476;42.710;23.388;2024-01-15T12:27:53;94492.19;;;2.78;66.45
79075;BME280;68476;42.710;23.388;2024-01-15T12:30:19;94479.38;;;2.40;67.55
79075;BME280;68476;42.710;23.388;2024-01-15T12:32:45;94488.28;;;2.68;67.21
79075;BME280;68476;42.710;23.388;2024-01-15T12:35:13;94476.91;;;2.86;66.56
79075;BME280;68476;42.710;23.388;2024-01-15T12:37:42;94476.91;;;2.66;66.39
79075;BME280;68476;42.710;23.388;2024-01-15T12:40:09;94474.19;;;2.92;66.33
79075;BME280;68476;42.710;23.388;2024-01-15T12:42:40;94469.63;;;3.00;65.60
79075;BME280;68476;42.710;23.388;2024-01-15T12:45:06;94466.13;;;2.99;66.04
79075;BME280;68476;42.710;23.388;2024-01-15T12:47:32;94464.06;;;2.81;67.56